Big Bear Station Historical Data
Daily Summary for February 7, 2019 Units:  Both    English   Metric
Next Day »
Daily Weekly Monthly Yearly Custom
  High: Low: Average:
Temperature: 36.1 °F /  2.3 °C 5.2 °F /  -14.9 °C 18 °F /  -7.8 °C
Dew Point: 27.9 °F /  -2.3 °C 3.9 °F /  -15.6 °C 15.3 °F /  -9.3 °C
Humidity: 96% 71% 90%
Wind Speed: 3.7mph /  6km/h - 0.4mph /  0.6km/h
Wind Gust: -999.0mph /  -1607.7km/h - -
Wind- - West
Pressure: 23.53 in /  796.7 hPa 23.46 in /  794.4 hPa -
Precipitation: 0.00 in /  0 mm    
Historical Graphs
 
 
Tabular Data for February 7, 2019
Time Temperature Dew Point Pressure Wind Wind Speed Wind Gust Humidity Rainfall Rate (Hourly)
00:14 9.7 °F /  -12.4 °C 8.6 °F /  -13 °C 23.46in /  794.4hPa Calm   -999.0mph /  -1607.7km/h 95% 0.00in /  0mm
00:29 9.3 °F /  -12.6 °C 8.2 °F /  -13.2 °C 23.47in /  794.7hPa Calm   -999.0mph /  -1607.7km/h 95% 0.00in /  0mm
00:44 9.0 °F /  -12.8 °C 7.9 °F /  -13.4 °C 23.47in /  794.7hPa Calm   -999.0mph /  -1607.7km/h 95% 0.00in /  0mm
01:00 8.8 °F /  -12.9 °C 7.7 °F /  -13.5 °C 23.47in /  794.7hPa Calm   -999.0mph /  -1607.7km/h 95% 0.00in /  0mm
01:15 8.6 °F /  -13 °C 7.5 °F /  -13.6 °C 23.48in /  795hPa Calm   -999.0mph /  -1607.7km/h 95% 0.00in /  0mm
01:30 8.4 °F /  -13.1 °C 7.0 °F /  -13.9 °C 23.48in /  795hPa Calm   -999.0mph /  -1607.7km/h 94% 0.00in /  0mm
01:45 7.9 °F /  -13.4 °C 6.5 °F /  -14.2 °C 23.48in /  795hPa Calm   -999.0mph /  -1607.7km/h 94% 0.00in /  0mm
02:01 7.9 °F /  -13.4 °C 6.5 °F /  -14.2 °C 23.47in /  794.7hPa Calm   -999.0mph /  -1607.7km/h 94% 0.00in /  0mm
02:16 7.7 °F /  -13.5 °C 6.3 °F /  -14.3 °C 23.47in /  794.7hPa Calm   -999.0mph /  -1607.7km/h 94% 0.00in /  0mm
02:31 7.5 °F /  -13.6 °C 6.1 °F /  -14.4 °C 23.47in /  794.7hPa Calm   -999.0mph /  -1607.7km/h 94% 0.00in /  0mm
02:46 7.7 °F /  -13.5 °C 6.6 °F /  -14.1 °C 23.47in /  794.7hPa Calm   -999.0mph /  -1607.7km/h 95% 0.00in /  0mm
03:01 7.2 °F /  -13.8 °C 5.8 °F /  -14.6 °C 23.46in /  794.4hPa Calm   -999.0mph /  -1607.7km/h 94% 0.00in /  0mm
03:17 7.0 °F /  -13.9 °C 5.6 °F /  -14.7 °C 23.46in /  794.4hPa Calm   -999.0mph /  -1607.7km/h 94% 0.00in /  0mm
03:32 7.0 °F /  -13.9 °C 5.6 °F /  -14.7 °C 23.47in /  794.7hPa Calm   -999.0mph /  -1607.7km/h 94% 0.00in /  0mm
03:47 6.6 °F /  -14.1 °C 5.2 °F /  -14.9 °C 23.47in /  794.7hPa Calm   -999.0mph /  -1607.7km/h 94% 0.00in /  0mm
04:02 7.0 °F /  -13.9 °C 5.6 °F /  -14.7 °C 23.47in /  794.7hPa Calm   -999.0mph /  -1607.7km/h 94% 0.00in /  0mm
04:17 6.6 °F /  -14.1 °C 5.2 °F /  -14.9 °C 23.47in /  794.7hPa Calm   -999.0mph /  -1607.7km/h 94% 0.00in /  0mm
04:33 6.4 °F /  -14.2 °C 5.0 °F /  -15 °C 23.47in /  794.7hPa Calm   -999.0mph /  -1607.7km/h 94% 0.00in /  0mm
04:48 6.3 °F /  -14.3 °C 4.9 °F /  -15.1 °C 23.47in /  794.7hPa Calm   -999.0mph /  -1607.7km/h 94% 0.00in /  0mm
05:03 6.1 °F /  -14.4 °C 4.7 °F /  -15.2 °C 23.47in /  794.7hPa Calm   -999.0mph /  -1607.7km/h 94% 0.00in /  0mm
05:18 5.9 °F /  -14.5 °C 4.5 °F /  -15.3 °C 23.48in /  795hPa Calm   -999.0mph /  -1607.7km/h 94% 0.00in /  0mm
05:33 5.7 °F /  -14.6 °C 4.3 °F /  -15.4 °C 23.48in /  795hPa Calm   -999.0mph /  -1607.7km/h 94% 0.00in /  0mm
05:49 5.7 °F /  -14.6 °C 4.3 °F /  -15.4 °C 23.48in /  795hPa Calm   -999.0mph /  -1607.7km/h 94% 0.00in /  0mm
06:04 5.5 °F /  -14.7 °C 4.1 °F /  -15.5 °C 23.48in /  795hPa Calm   -999.0mph /  -1607.7km/h 94% 0.00in /  0mm
06:19 5.5 °F /  -14.7 °C 4.1 °F /  -15.5 °C 23.48in /  795hPa Calm   -999.0mph /  -1607.7km/h 94% 0.00in /  0mm
06:34 5.5 °F /  -14.7 °C 4.1 °F /  -15.5 °C 23.49in /  795.4hPa Calm   -999.0mph /  -1607.7km/h 94% 0.00in /  0mm
06:49 5.2 °F /  -14.9 °C 3.9 °F /  -15.6 °C 23.49in /  795.4hPa Calm   -999.0mph /  -1607.7km/h 94% 0.00in /  0mm
07:05 5.4 °F /  -14.8 °C 4.0 °F /  -15.6 °C 23.50in /  795.7hPa Calm   -999.0mph /  -1607.7km/h 94% 0.00in /  0mm
07:20 5.9 °F /  -14.5 °C 4.5 °F /  -15.3 °C 23.50in /  795.7hPa Calm   -999.0mph /  -1607.7km/h 94% 0.00in /  0mm
07:35 6.1 °F /  -14.4 °C 4.7 °F /  -15.2 °C 23.50in /  795.7hPa Calm   -999.0mph /  -1607.7km/h 94% 0.00in /  0mm
07:50 6.8 °F /  -14 °C 5.4 °F /  -14.8 °C 23.51in /  796hPa Calm   -999.0mph /  -1607.7km/h 94% 0.00in /  0mm
08:06 7.5 °F /  -13.6 °C 6.1 °F /  -14.4 °C 23.51in /  796hPa Calm   -999.0mph /  -1607.7km/h 94% 0.00in /  0mm
08:21 7.9 °F /  -13.4 °C 6.3 °F /  -14.3 °C 23.51in /  796hPa Calm   -999.0mph /  -1607.7km/h 93% 0.00in /  0mm
08:36 9.1 °F /  -12.7 °C 7.5 °F /  -13.6 °C 23.51in /  796hPa Calm   -999.0mph /  -1607.7km/h 93% 0.00in /  0mm
08:51 10.9 °F /  -11.7 °C 9.3 °F /  -12.6 °C 23.52in /  796.4hPa Calm   -999.0mph /  -1607.7km/h 93% 0.00in /  0mm
09:06 12.7 °F /  -10.7 °C 11.3 °F /  -11.5 °C 23.52in /  796.4hPa Calm   -999.0mph /  -1607.7km/h 94% 0.00in /  0mm
09:22 14.2 °F /  -9.9 °C 12.5 °F /  -10.8 °C 23.52in /  796.4hPa Calm   -999.0mph /  -1607.7km/h 93% 0.00in /  0mm
09:37 15.8 °F /  -9 °C 14.4 °F /  -9.8 °C 23.52in /  796.4hPa Calm   -999.0mph /  -1607.7km/h 94% 0.00in /  0mm
09:52 17.4 °F /  -8.1 °C 16.0 °F /  -8.9 °C 23.52in /  796.4hPa Calm   -999.0mph /  -1607.7km/h 94% 0.00in /  0mm
10:07 19.9 °F /  -6.7 °C 18.5 °F /  -7.5 °C 23.52in /  796.4hPa Calm   -999.0mph /  -1607.7km/h 94% 0.00in /  0mm
10:22 22.6 °F /  -5.2 °C 21.4 °F /  -5.9 °C 23.53in /  796.7hPa Calm   -999.0mph /  -1607.7km/h 95% 0.00in /  0mm
10:38 25.2 °F /  -3.8 °C 22.9 °F /  -5.1 °C 23.52in /  796.4hPa Calm   -999.0mph /  -1607.7km/h 91% 0.00in /  0mm
10:53 27.3 °F /  -2.6 °C 23.7 °F /  -4.6 °C 23.52in /  796.4hPa Calm   -999.0mph /  -1607.7km/h 86% 0.00in /  0mm
11:08 30.0 °F /  -1.1 °C 23.4 °F /  -4.8 °C 23.52in /  796.4hPa West 2.2mph /  3.5km/h -999.0mph /  -1607.7km/h 76% 0.00in /  0mm
11:23 31.5 °F /  -0.3 °C 24.5 °F /  -4.2 °C 23.52in /  796.4hPa NNW 3.2mph /  5.1km/h -999.0mph /  -1607.7km/h 75% 0.00in /  0mm
11:38 31.8 °F /  -0.1 °C 25.4 °F /  -3.7 °C 23.52in /  796.4hPa Calm   -999.0mph /  -1607.7km/h 77% 0.00in /  0mm
11:54 32.2 °F /  0.1 °C 26.1 °F /  -3.3 °C 23.51in /  796hPa NW 2.2mph /  3.5km/h -999.0mph /  -1607.7km/h 78% 0.00in /  0mm
12:09 33.6 °F /  0.9 °C 26.5 °F /  -3.1 °C 23.51in /  796hPa NW 2.7mph /  4.3km/h -999.0mph /  -1607.7km/h 75% 0.00in /  0mm
12:25 35.2 °F /  1.8 °C 27.4 °F /  -2.6 °C 23.51in /  796hPa Calm   -999.0mph /  -1607.7km/h 73% 0.00in /  0mm
12:40 36.1 °F /  2.3 °C 27.9 °F /  -2.3 °C 23.50in /  795.7hPa Calm   -999.0mph /  -1607.7km/h 72% 0.00in /  0mm
12:55 36.0 °F /  2.2 °C 27.5 °F /  -2.5 °C 23.50in /  795.7hPa WNW 2.2mph /  3.5km/h -999.0mph /  -1607.7km/h 71% 0.00in /  0mm
13:11 34.3 °F /  1.3 °C 26.2 °F /  -3.2 °C 23.50in /  795.7hPa Calm   -999.0mph /  -1607.7km/h 72% 0.00in /  0mm
13:26 33.6 °F /  0.9 °C 26.5 °F /  -3.1 °C 23.49in /  795.4hPa NNE 1.7mph /  2.7km/h -999.0mph /  -1607.7km/h 75% 0.00in /  0mm
13:41 32.5 °F /  0.3 °C 25.8 °F /  -3.4 °C 23.49in /  795.4hPa WNW 2.7mph /  4.3km/h -999.0mph /  -1607.7km/h 76% 0.00in /  0mm
13:56 32.0 °F /  0 °C 26.2 °F /  -3.2 °C 23.49in /  795.4hPa NW 2.7mph /  4.3km/h -999.0mph /  -1607.7km/h 79% 0.00in /  0mm
14:11 32.7 °F /  0.4 °C 26.6 °F /  -3 °C 23.49in /  795.4hPa Calm   -999.0mph /  -1607.7km/h 78% 0.00in /  0mm
14:27 32.5 °F /  0.3 °C 26.4 °F /  -3.1 °C 23.49in /  795.4hPa NNW 2.7mph /  4.3km/h -999.0mph /  -1607.7km/h 78% 0.00in /  0mm
14:42 31.3 °F /  -0.4 °C 26.1 °F /  -3.3 °C 23.48in /  795hPa WNW 2.7mph /  4.3km/h -999.0mph /  -1607.7km/h 81% 0.00in /  0mm
14:57 31.1 °F /  -0.5 °C 26.0 °F /  -3.3 °C 23.48in /  795hPa NNE 3.7mph /  6km/h -999.0mph /  -1607.7km/h 81% 0.00in /  0mm
15:12 30.7 °F /  -0.7 °C 25.6 °F /  -3.6 °C 23.48in /  795hPa NW 1.7mph /  2.7km/h -999.0mph /  -1607.7km/h 81% 0.00in /  0mm
15:28 30.6 °F /  -0.8 °C 25.2 °F /  -3.8 °C 23.48in /  795hPa NW 2.7mph /  4.3km/h -999.0mph /  -1607.7km/h 80% 0.00in /  0mm
15:43 30.4 °F /  -0.9 °C 24.7 °F /  -4.1 °C 23.48in /  795hPa NW 3.2mph /  5.1km/h -999.0mph /  -1607.7km/h 79% 0.00in /  0mm
15:58 30.0 °F /  -1.1 °C 24.9 °F /  -3.9 °C 23.48in /  795hPa WNW 1.1mph /  1.8km/h -999.0mph /  -1607.7km/h 81% 0.00in /  0mm
16:13 29.3 °F /  -1.5 °C 24.8 °F /  -4 °C 23.48in /  795hPa Calm   -999.0mph /  -1607.7km/h 83% 0.00in /  0mm
16:28 28.9 °F /  -1.7 °C 25.0 °F /  -3.9 °C 23.48in /  795hPa Calm   -999.0mph /  -1607.7km/h 85% 0.00in /  0mm
16:44 28.2 °F /  -2.1 °C 24.6 °F /  -4.1 °C 23.48in /  795hPa Calm   -999.0mph /  -1607.7km/h 86% 0.00in /  0mm
16:59 27.3 °F /  -2.6 °C 23.9 °F /  -4.5 °C 23.48in /  795hPa Calm   -999.0mph /  -1607.7km/h 87% 0.00in /  0mm
17:14 26.6 °F /  -3 °C 23.5 °F /  -4.7 °C 23.48in /  795hPa Calm   -999.0mph /  -1607.7km/h 88% 0.00in /  0mm
17:29 25.5 °F /  -3.6 °C 22.7 °F /  -5.2 °C 23.48in /  795hPa Calm   -999.0mph /  -1607.7km/h 89% 0.00in /  0mm
17:44 24.4 °F /  -4.2 °C 21.9 °F /  -5.6 °C 23.48in /  795hPa Calm   -999.0mph /  -1607.7km/h 90% 0.00in /  0mm
18:00 24.1 °F /  -4.4 °C 21.9 °F /  -5.6 °C 23.48in /  795hPa Calm   -999.0mph /  -1607.7km/h 91% 0.00in /  0mm
18:15 23.4 °F /  -4.8 °C 21.2 °F /  -6 °C 23.48in /  795hPa Calm   -999.0mph /  -1607.7km/h 91% 0.00in /  0mm
18:30 22.6 °F /  -5.2 °C 20.6 °F /  -6.3 °C 23.48in /  795hPa Calm   -999.0mph /  -1607.7km/h 92% 0.00in /  0mm
18:45 22.1 °F /  -5.5 °C 20.1 °F /  -6.6 °C 23.49in /  795.4hPa Calm   -999.0mph /  -1607.7km/h 92% 0.00in /  0mm
19:00 21.6 °F /  -5.8 °C 19.9 °F /  -6.7 °C 23.49in /  795.4hPa Calm   -999.0mph /  -1607.7km/h 93% 0.00in /  0mm
19:16 21.0 °F /  -6.1 °C 19.3 °F /  -7.1 °C 23.49in /  795.4hPa Calm   -999.0mph /  -1607.7km/h 93% 0.00in /  0mm
19:31 20.8 °F /  -6.2 °C 19.6 °F /  -6.9 °C 23.50in /  795.7hPa Calm   -999.0mph /  -1607.7km/h 95% 0.00in /  0mm
19:46 20.5 °F /  -6.4 °C 19.3 °F /  -7.1 °C 23.50in /  795.7hPa Calm   -999.0mph /  -1607.7km/h 95% 0.00in /  0mm
20:01 20.1 °F /  -6.6 °C 18.7 °F /  -7.4 °C 23.50in /  795.7hPa Calm   -999.0mph /  -1607.7km/h 94% 0.00in /  0mm
20:17 19.4 °F /  -7 °C 18.0 °F /  -7.8 °C 23.51in /  796hPa Calm   -999.0mph /  -1607.7km/h 94% 0.00in /  0mm
20:32 18.9 °F /  -7.3 °C 17.5 °F /  -8.1 °C 23.51in /  796hPa Calm   -999.0mph /  -1607.7km/h 94% 0.00in /  0mm
20:47 18.1 °F /  -7.7 °C 16.7 °F /  -8.5 °C 23.51in /  796hPa Calm   -999.0mph /  -1607.7km/h 94% 0.00in /  0mm
21:02 18.0 °F /  -7.8 °C 16.6 °F /  -8.6 °C 23.51in /  796hPa Calm   -999.0mph /  -1607.7km/h 94% 0.00in /  0mm
21:17 17.6 °F /  -8 °C 16.2 °F /  -8.8 °C 23.51in /  796hPa Calm   -999.0mph /  -1607.7km/h 94% 0.00in /  0mm
21:33 17.1 °F /  -8.3 °C 15.9 °F /  -8.9 °C 23.51in /  796hPa Calm   -999.0mph /  -1607.7km/h 95% 0.00in /  0mm
21:48 16.3 °F /  -8.7 °C 15.1 °F /  -9.4 °C 23.51in /  796hPa Calm   -999.0mph /  -1607.7km/h 95% 0.00in /  0mm
22:03 16.3 °F /  -8.7 °C 15.1 °F /  -9.4 °C 23.51in /  796hPa Calm   -999.0mph /  -1607.7km/h 95% 0.00in /  0mm
22:18 16.0 °F /  -8.9 °C 14.8 °F /  -9.6 °C 23.50in /  795.7hPa Calm   -999.0mph /  -1607.7km/h 95% 0.00in /  0mm
22:33 15.4 °F /  -9.2 °C 14.2 °F /  -9.9 °C 23.49in /  795.4hPa Calm   -999.0mph /  -1607.7km/h 95% 0.00in /  0mm
22:49 15.6 °F /  -9.1 °C 14.4 °F /  -9.8 °C 23.49in /  795.4hPa Calm   -999.0mph /  -1607.7km/h 95% 0.00in /  0mm
23:04 15.1 °F /  -9.4 °C 13.9 °F /  -10.1 °C 23.49in /  795.4hPa Calm   -999.0mph /  -1607.7km/h 95% 0.00in /  0mm
23:19 14.9 °F /  -9.5 °C 14.0 °F /  -10 °C 23.49in /  795.4hPa Calm   -999.0mph /  -1607.7km/h 96% 0.00in /  0mm
23:34 14.4 °F /  -9.8 °C 13.2 °F /  -10.4 °C 23.49in /  795.4hPa Calm   -999.0mph /  -1607.7km/h 95% 0.00in /  0mm
23:49 14.0 °F /  -10 °C 12.8 °F /  -10.7 °C 23.48in /  795hPa Calm   -999.0mph /  -1607.7km/h 95% 0.00in /  0mm
Big Bear CA Weather